sensor_id;sensor_type;location;lat;lon;timestamp;temperature;humidity
15676;DHT22;7938;47.666;9.434;2022-11-15T05:02:55;3.40;99.90
15676;DHT22;7938;47.666;9.434;2022-11-15T05:05:40;3.50;99.90
15676;DHT22;7938;47.666;9.434;2022-11-15T05:08:07;3.60;99.90
15676;DHT22;7938;47.666;9.434;2022-11-15T05:10:34;3.70;99.90
15676;DHT22;7938;47.666;9.434;2022-11-15T05:13:01;3.70;99.90
15676;DHT22;7938;47.666;9.434;2022-11-15T05:15:28;3.70;99.90
15676;DHT22;7938;47.666;9.434;2022-11-15T05:17:59;3.60;99.90
15676;DHT22;7938;47.666;9.434;2022-11-15T05:20:26;3.50;99.90
15676;DHT22;7938;47.666;9.434;2022-11-15T05:22:53;3.50;99.90
15676;DHT22;7938;47.666;9.434;2022-11-15T05:25:20;3.50;99.90
15676;DHT22;7938;47.666;9.434;2022-11-15T05:27:47;3.60;99.90
15676;DHT22;7938;47.666;9.434;2022-11-15T05:30:15;3.50;99.90
15676;DHT22;7938;47.666;9.434;2022-11-15T05:32:43;3.50;99.90
15676;DHT22;7938;47.666;9.434;2022-11-15T05:35:17;3.50;99.90
15676;DHT22;7938;47.666;9.434;2022-11-15T05:37:45;3.50;99.90
15676;DHT22;7938;47.666;9.434;2022-11-15T05:40:11;3.50;99.90
15676;DHT22;7938;47.666;9.434;2022-11-15T05:42:38;3.50;99.90
15676;DHT22;7938;47.666;9.434;2022-11-15T05:45:06;3.60;99.90
15676;DHT22;7938;47.666;9.434;2022-11-15T05:47:35;3.70;99.90
15676;DHT22;7938;47.666;9.434;2022-11-15T05:50:04;3.70;99.90
15676;DHT22;7938;47.666;9.434;2022-11-15T05:52:35;3.80;99.90
15676;DHT22;7938;47.666;9.434;2022-11-15T05:55:05;4.40;99.90
15676;DHT22;7938;47.666;9.434;2022-11-15T05:57:33;3.90;99.90
15676;DHT22;7938;47.666;9.434;2022-11-15T06:00:00;4.00;99.90
15676;DHT22;7938;47.666;9.434;2022-11-15T06:02:27;4.40;99.90
15676;DHT22;7938;47.666;9.434;2022-11-15T06:04:54;4.10;99.90
15676;DHT22;7938;47.666;9.434;2022-11-15T06:07:21;4.20;99.90
15676;DHT22;7938;47.666;9.434;2022-11-15T06:09:49;4.20;99.90
15676;DHT22;7938;47.666;9.434;2022-11-15T06:12:16;4.20;99.90
15676;DHT22;7938;47.666;9.434;2022-11-15T06:14:43;4.30;99.90
15676;DHT22;7938;47.666;9.434;2022-11-15T06:17:10;4.20;99.90
15676;DHT22;7938;47.666;9.434;2022-11-15T06:19:37;4.20;99.90
15676;DHT22;7938;47.666;9.434;2022-11-15T06:22:04;4.20;99.90
15676;DHT22;7938;47.666;9.434;2022-11-15T06:24:31;4.30;99.90
15676;DHT22;7938;47.666;9.434;2022-11-15T06:26:59;4.30;99.90
15676;DHT22;7938;47.666;9.434;2022-11-15T06:29:26;4.40;99.90
15676;DHT22;7938;47.666;9.434;2022-11-15T06:31:53;4.40;99.90
15676;DHT22;7938;47.666;9.434;2022-11-15T06:34:19;4.50;99.90
15676;DHT22;7938;47.666;9.434;2022-11-15T06:36:46;4.50;99.90
15676;DHT22;7938;47.666;9.434;2022-11-15T06:39:13;4.50;99.90
15676;DHT22;7938;47.666;9.434;2022-11-15T06:41:40;4.60;99.90
15676;DHT22;7938;47.666;9.434;2022-11-15T06:44:08;4.60;99.90
15676;DHT22;7938;47.666;9.434;2022-11-15T06:46:35;4.70;99.90
15676;DHT22;7938;47.666;9.434;2022-11-15T06:49:02;4.80;99.90
15676;DHT22;7938;47.666;9.434;2022-11-15T06:51:29;4.90;99.90
15676;DHT22;7938;47.666;9.434;2022-11-15T06:53:56;5.10;99.90
15676;DHT22;7938;47.666;9.434;2022-11-15T06:56:23;5.00;99.90
15676;DHT22;7938;47.666;9.434;2022-11-15T06:58:50;5.00;99.90
15676;DHT22;7938;47.666;9.434;2022-11-15T07:01:18;5.10;99.90
15676;DHT22;7938;47.666;9.434;2022-11-15T07:03:45;5.10;99.90
15676;DHT22;7938;47.666;9.434;2022-11-15T07:06:12;5.10;99.90
15676;DHT22;7938;47.666;9.434;2022-11-15T07:08:39;5.20;99.90
15676;DHT22;7938;47.666;9.434;2022-11-15T07:11:08;5.30;99.90
15676;DHT22;7938;47.666;9.434;2022-11-15T07:13:36;5.40;99.90
15676;DHT22;7938;47.666;9.434;2022-11-15T07:16:04;5.40;99.90
15676;DHT22;7938;47.666;9.434;2022-11-15T07:18:33;5.40;99.90
15676;DHT22;7938;47.666;9.434;2022-11-15T07:21:01;5.50;99.90
15676;DHT22;7938;47.666;9.434;2022-11-15T07:23:28;5.50;99.90
15676;DHT22;7938;47.666;9.434;2022-11-15T07:25:57;5.60;99.90
15676;DHT22;7938;47.666;9.434;2022-11-15T07:28:24;5.60;99.90
15676;DHT22;7938;47.666;9.434;2022-11-15T07:30:51;5.50;99.90
15676;DHT22;7938;47.666;9.434;2022-11-15T07:33:18;5.50;99.90
15676;DHT22;7938;47.666;9.434;2022-11-15T07:35:47;5.50;99.90
15676;DHT22;7938;47.666;9.434;2022-11-15T07:38:15;5.50;99.90
15676;DHT22;7938;47.666;9.434;2022-11-15T07:40:44;5.60;99.90
15676;DHT22;7938;47.666;9.434;2022-11-15T07:43:11;5.60;99.90
15676;DHT22;7938;47.666;9.434;2022-11-15T07:45:41;5.60;99.90
15676;DHT22;7938;47.666;9.434;2022-11-15T07:48:08;5.60;99.90
15676;DHT22;7938;47.666;9.434;2022-11-15T07:50:35;5.70;99.90
15676;DHT22;7938;47.666;9.434;2022-11-15T07:53:03;5.70;99.90
15676;DHT22;7938;47.666;9.434;2022-11-15T07:55:30;5.80;99.90
15676;DHT22;7938;47.666;9.434;2022-11-15T07:58:01;5.90;99.90
15676;DHT22;7938;47.666;9.434;2022-11-15T08:00:29;6.00;99.90
15676;DHT22;7938;47.666;9.434;2022-11-15T08:03:02;6.00;99.90
15676;DHT22;7938;47.666;9.434;2022-11-15T08:05:29;6.20;99.90
15676;DHT22;7938;47.666;9.434;2022-11-15T08:07:56;6.30;99.90
15676;DHT22;7938;47.666;9.434;2022-11-15T08:10:24;6.40;99.90
15676;DHT22;7938;47.666;9.434;2022-11-15T08:12:57;6.40;99.90
15676;DHT22;7938;47.666;9.434;2022-11-15T08:15:24;6.60;99.90
15676;DHT22;7938;47.666;9.434;2022-11-15T08:17:54;6.60;99.90
15676;DHT22;7938;47.666;9.434;2022-11-15T08:20:21;6.30;99.90
15676;DHT22;7938;47.666;9.434;2022-11-15T08:22:48;6.30;99.90
15676;DHT22;7938;47.666;9.434;2022-11-15T08:25:15;6.30;99.90
15676;DHT22;7938;47.666;9.434;2022-11-15T08:27:43;6.40;99.90
15676;DHT22;7938;47.666;9.434;2022-11-15T08:30:11;6.50;99.90
15676;DHT22;7938;47.666;9.434;2022-11-15T08:32:39;6.50;99.90
15676;DHT22;7938;47.666;9.434;2022-11-15T08:35:06;6.60;99.90
15676;DHT22;7938;47.666;9.434;2022-11-15T08:37:34;6.70;99.90
15676;DHT22;7938;47.666;9.434;2022-11-15T08:40:01;6.70;99.90
15676;DHT22;7938;47.666;9.434;2022-11-15T08:42:28;6.60;99.90
15676;DHT22;7938;47.666;9.434;2022-11-15T08:44:56;6.60;99.90
15676;DHT22;7938;47.666;9.434;2022-11-15T08:47:23;6.60;99.90
15676;DHT22;7938;47.666;9.434;2022-11-15T08:49:50;6.80;99.90
15676;DHT22;7938;47.666;9.434;2022-11-15T08:52:17;6.90;99.90
15676;DHT22;7938;47.666;9.434;2022-11-15T08:54:44;6.90;99.90
15676;DHT22;7938;47.666;9.434;2022-11-15T08:57:11;6.90;99.90
15676;DHT22;7938;47.666;9.434;2022-11-15T08:59:38;7.10;99.90
15676;DHT22;7938;47.666;9.434;2022-11-15T09:02:11;7.30;99.90
15676;DHT22;7938;47.666;9.434;2022-11-15T09:04:39;7.30;99.90
15676;DHT22;7938;47.666;9.434;2022-11-15T09:07:07;7.40;99.90
15676;DHT22;7938;47.666;9.434;2022-11-15T09:09:33;7.20;99.90
15676;DHT22;7938;47.666;9.434;2022-11-15T09:12:00;7.30;99.90
15676;DHT22;7938;47.666;9.434;2022-11-15T09:14:27;7.30;99.90
15676;DHT22;7938;47.666;9.434;2022-11-15T09:16:54;7.30;99.90
15676;DHT22;7938;47.666;9.434;2022-11-15T09:19:23;7.40;99.90
15676;DHT22;7938;47.666;9.434;2022-11-15T09:21:50;7.40;99.90
15676;DHT22;7938;47.666;9.434;2022-11-15T09:24:17;7.30;99.90
15676;DHT22;7938;47.666;9.434;2022-11-15T09:26:44;7.20;99.90
15676;DHT22;7938;47.666;9.434;2022-11-15T09:29:11;7.20;99.90
15676;DHT22;7938;47.666;9.434;2022-11-15T09:31:38;7.30;99.90
15676;DHT22;7938;47.666;9.434;2022-11-15T09:34:05;7.20;99.90
15676;DHT22;7938;47.666;9.434;2022-11-15T09:36:33;7.40;99.90
15676;DHT22;7938;47.666;9.434;2022-11-15T09:39:00;7.70;99.90
15676;DHT22;7938;47.666;9.434;2022-11-15T09:41:55;7.50;99.90
15676;DHT22;7938;47.666;9.434;2022-11-15T09:47:48;7.60;99.90
15676;DHT22;7938;47.666;9.434;2022-11-15T09:50:28;8.00;99.90
15676;DHT22;7938;47.666;9.434;2022-11-15T09:52:59;8.00;99.90
15676;DHT22;7938;47.666;9.434;2022-11-15T09:55:41;8.10;99.90
15676;DHT22;7938;47.666;9.434;2022-11-15T09:58:19;8.20;99.90
15676;DHT22;7938;47.666;9.434;2022-11-15T10:00:48;8.30;99.90
15676;DHT22;7938;47.666;9.434;2022-11-15T10:03:23;8.30;99.90
15676;DHT22;7938;47.666;9.434;2022-11-15T10:05:54;8.20;99.90
15676;DHT22;7938;47.666;9.434;2022-11-15T10:08:34;8.30;99.90
15676;DHT22;7938;47.666;9.434;2022-11-15T10:11:06;8.30;99.90
15676;DHT22;7938;47.666;9.434;2022-11-15T10:13:36;8.30;99.90
15676;DHT22;7938;47.666;9.434;2022-11-15T10:16:10;8.50;99.90
15676;DHT22;7938;47.666;9.434;2022-11-15T10:18:48;8.30;99.90
15676;DHT22;7938;47.666;9.434;2022-11-15T10:21:23;8.50;99.90
15676;DHT22;7938;47.666;9.434;2022-11-15T10:23:53;8.50;99.90
15676;DHT22;7938;47.666;9.434;2022-11-15T10:26:21;8.40;99.90
15676;DHT22;7938;47.666;9.434;2022-11-15T10:28:50;8.40;99.90
15676;DHT22;7938;47.666;9.434;2022-11-15T10:31:23;8.50;99.90
15676;DHT22;7938;47.666;9.434;2022-11-15T10:33:51;8.60;99.90
15676;DHT22;7938;47.666;9.434;2022-11-15T10:36:23;8.40;99.90
15676;DHT22;7938;47.666;9.434;2022-11-15T10:38:58;8.50;99.90
15676;DHT22;7938;47.666;9.434;2022-11-15T10:41:37;8.60;99.90
15676;DHT22;7938;47.666;9.434;2022-11-15T10:44:12;8.70;99.90
15676;DHT22;7938;47.666;9.434;2022-11-15T10:46:45;8.70;99.90
15676;DHT22;7938;47.666;9.434;2022-11-15T10:49:15;8.80;99.90
15676;DHT22;7938;47.666;9.434;2022-11-15T10:51:48;8.90;99.90
15676;DHT22;7938;47.666;9.434;2022-11-15T10:54:22;8.70;99.90
15676;DHT22;7938;47.666;9.434;2022-11-15T10:56:52;8.70;99.90
15676;DHT22;7938;47.666;9.434;2022-11-15T10:59:24;8.90;99.90
15676;DHT22;7938;47.666;9.434;2022-11-15T11:01:52;9.00;99.90
15676;DHT22;7938;47.666;9.434;2022-11-15T11:04:19;8.90;99.90
15676;DHT22;7938;47.666;9.434;2022-11-15T11:06:47;9.10;99.90
15676;DHT22;7938;47.666;9.434;2022-11-15T11:09:25;9.10;99.90
15676;DHT22;7938;47.666;9.434;2022-11-15T11:11:53;9.10;99.90
15676;DHT22;7938;47.666;9.434;2022-11-15T11:14:22;9.10;99.90
15676;DHT22;7938;47.666;9.434;2022-11-15T11:16:54;9.10;99.90
15676;DHT22;7938;47.666;9.434;2022-11-15T11:19:39;9.20;99.90
15676;DHT22;7938;47.666;9.434;2022-11-15T11:22:16;9.30;99.90
15676;DHT22;7938;47.666;9.434;2022-11-15T11:24:56;9.30;99.90
15676;DHT22;7938;47.666;9.434;2022-11-15T11:27:36;9.40;99.90
15676;DHT22;7938;47.666;9.434;2022-11-15T11:30:11;9.40;99.90
15676;DHT22;7938;47.666;9.434;2022-11-15T11:32:59;9.50;99.90
15676;DHT22;7938;47.666;9.434;2022-11-15T11:35:32;9.50;99.90
15676;DHT22;7938;47.666;9.434;2022-11-15T11:38:15;9.70;99.90
15676;DHT22;7938;47.666;9.434;2022-11-15T11:40:56;9.80;99.90
15676;DHT22;7938;47.666;9.434;2022-11-15T11:43:30;9.80;99.90
15676;DHT22;7938;47.666;9.434;2022-11-15T11:46:23;9.80;99.90
15676;DHT22;7938;47.666;9.434;2022-11-15T11:48:58;9.70;99.90
15676;DHT22;7938;47.666;9.434;2022-11-15T11:51:32;9.60;99.90
15676;DHT22;7938;47.666;9.434;2022-11-15T11:54:05;9.60;99.90
15676;DHT22;7938;47.666;9.434;2022-11-15T11:56:38;9.70;99.90
15676;DHT22;7938;47.666;9.434;2022-11-15T11:59:10;9.80;99.90
15676;DHT22;7938;47.666;9.434;2022-11-15T12:01:42;9.80;99.90
15676;DHT22;7938;47.666;9.434;2022-11-15T12:04:13;10.10;99.90
15676;DHT22;7938;47.666;9.434;2022-11-15T12:06:45;10.10;99.90
15676;DHT22;7938;47.666;9.434;2022-11-15T12:09:16;10.00;99.90
15676;DHT22;7938;47.666;9.434;2022-11-15T12:11:50;10.00;99.90
15676;DHT22;7938;47.666;9.434;2022-11-15T12:14:25;10.00;99.90
15676;DHT22;7938;47.666;9.434;2022-11-15T12:16:54;9.90;99.90
15676;DHT22;7938;47.666;9.434;2022-11-15T12:19:21;10.10;99.90
15676;DHT22;7938;47.666;9.434;2022-11-15T12:21:50;10.10;99.90
15676;DHT22;7938;47.666;9.434;2022-11-15T12:24:23;10.10;99.90
15676;DHT22;7938;47.666;9.434;2022-11-15T12:26:56;10.20;99.90
15676;DHT22;7938;47.666;9.434;2022-11-15T12:29:27;10.20;99.90
15676;DHT22;7938;47.666;9.434;2022-11-15T12:31:56;10.20;99.90
15676;DHT22;7938;47.666;9.434;2022-11-15T12:34:46;10.20;99.90
15676;DHT22;7938;47.666;9.434;2022-11-15T12:40:32;10.30;99.90
15676;DHT22;7938;47.666;9.434;2022-11-15T12:43:36;10.30;99.90
15676;DHT22;7938;47.666;9.434;2022-11-15T12:46:05;10.50;99.90
15676;DHT22;7938;47.666;9.434;2022-11-15T12:48:56;10.50;99.90
15676;DHT22;7938;47.666;9.434;2022-11-15T12:54:53;10.50;99.90
15676;DHT22;7938;47.666;9.434;2022-11-15T12:57:38;10.40;99.90
15676;DHT22;7938;47.666;9.434;2022-11-15T13:03:28;10.30;99.90
15676;DHT22;7938;47.666;9.434;2022-11-15T13:06:02;10.20;99.90
15676;DHT22;7938;47.666;9.434;2022-11-15T13:08:38;10.20;99.90
15676;DHT22;7938;47.666;9.434;2022-11-15T13:11:45;10.20;99.90
15676;DHT22;7938;47.666;9.434;2022-11-15T13:14:46;10.10;99.90
15676;DHT22;7938;47.666;9.434;2022-11-15T13:17:36;10.20;99.90
15676;DHT22;7938;47.666;9.434;2022-11-15T13:20:31;10.30;99.90
15676;DHT22;7938;47.666;9.434;2022-11-15T13:23:07;10.30;99.90
15676;DHT22;7938;47.666;9.434;2022-11-15T13:26:06;10.10;99.90
15676;DHT22;7938;47.666;9.434;2022-11-15T13:28:37;10.10;99.90
15676;DHT22;7938;47.666;9.434;2022-11-15T13:31:28;10.10;99.90
15676;DHT22;7938;47.666;9.434;2022-11-15T13:33:59;10.10;99.90
15676;DHT22;7938;47.666;9.434;2022-11-15T13:36:29;10.20;99.90
15676;DHT22;7938;47.666;9.434;2022-11-15T13:39:00;10.20;99.90
15676;DHT22;7938;47.666;9.434;2022-11-15T13:41:29;10.20;99.90
15676;DHT22;7938;47.666;9.434;2022-11-15T13:43:57;10.10;99.90
15676;DHT22;7938;47.666;9.434;2022-11-15T13:46:25;10.10;99.90
15676;DHT22;7938;47.666;9.434;2022-11-15T13:48:55;10.10;99.90
15676;DHT22;7938;47.666;9.434;2022-11-15T13:51:37;10.20;99.90
15676;DHT22;7938;47.666;9.434;2022-11-15T13:54:13;10.30;99.90
15676;DHT22;7938;47.666;9.434;2022-11-15T13:56:47;10.30;99.90
15676;DHT22;7938;47.666;9.434;2022-11-15T13:59:19;10.10;99.90
15676;DHT22;7938;47.666;9.434;2022-11-15T14:01:49;9.90;99.90
15676;DHT22;7938;47.666;9.434;2022-11-15T14:04:20;9.80;99.90
15676;DHT22;7938;47.666;9.434;2022-11-15T14:06:52;9.70;99.90
15676;DHT22;7938;47.666;9.434;2022-11-15T14:09:37;9.70;99.90
15676;DHT22;7938;47.666;9.434;2022-11-15T14:12:29;9.60;99.90
15676;DHT22;7938;47.666;9.434;2022-11-15T14:14:58;9.60;99.90
15676;DHT22;7938;47.666;9.434;2022-11-15T14:17:38;9.60;99.90
15676;DHT22;7938;47.666;9.434;2022-11-15T14:20:28;9.60;99.90
15676;DHT22;7938;47.666;9.434;2022-11-15T14:22:58;9.70;99.90
15676;DHT22;7938;47.666;9.434;2022-11-15T14:25:27;9.70;99.90
15676;DHT22;7938;47.666;9.434;2022-11-15T14:28:16;9.70;99.90
15676;DHT22;7938;47.666;9.434;2022-11-15T14:30:56;9.70;99.90
15676;DHT22;7938;47.666;9.434;2022-11-15T14:33:25;9.60;99.90
15676;DHT22;7938;47.666;9.434;2022-11-15T14:35:54;9.60;99.90
15676;DHT22;7938;47.666;9.434;2022-11-15T14:38:24;9.50;99.90
15676;DHT22;7938;47.666;9.434;2022-11-15T14:40:51;9.50;99.90
15676;DHT22;7938;47.666;9.434;2022-11-15T14:43:19;9.50;99.90
15676;DHT22;7938;47.666;9.434;2022-11-15T14:45:46;9.50;99.90
15676;DHT22;7938;47.666;9.434;2022-11-15T14:48:13;9.50;99.90
15676;DHT22;7938;47.666;9.434;2022-11-15T14:50:40;9.40;99.90
15676;DHT22;7938;47.666;9.434;2022-11-15T14:53:11;9.40;99.90
15676;DHT22;7938;47.666;9.434;2022-11-15T14:55:40;9.30;99.90
15676;DHT22;7938;47.666;9.434;2022-11-15T14:58:07;9.30;99.90
15676;DHT22;7938;47.666;9.434;2022-11-15T15:00:35;9.20;99.90
15676;DHT22;7938;47.666;9.434;2022-11-15T15:03:02;9.30;99.90
15676;DHT22;7938;47.666;9.434;2022-11-15T15:05:31;9.30;99.90
15676;DHT22;7938;47.666;9.434;2022-11-15T15:07:59;9.30;99.90
15676;DHT22;7938;47.666;9.434;2022-11-15T15:10:30;9.20;99.90
15676;DHT22;7938;47.666;9.434;2022-11-15T15:12:59;9.20;99.90
15676;DHT22;7938;47.666;9.434;2022-11-15T15:15:29;9.20;99.90
15676;DHT22;7938;47.666;9.434;2022-11-15T15:17:58;9.20;99.90
15676;DHT22;7938;47.666;9.434;2022-11-15T15:20:24;9.00;99.90
15676;DHT22;7938;47.666;9.434;2022-11-15T15:22:52;9.00;99.90
15676;DHT22;7938;47.666;9.434;2022-11-15T15:25:23;9.00;99.90
15676;DHT22;7938;47.666;9.434;2022-11-15T15:30:21;9.00;99.90
15676;DHT22;7938;47.666;9.434;2022-11-15T15:32:48;9.00;99.90
15676;DHT22;7938;47.666;9.434;2022-11-15T15:35:16;9.00;99.90
15676;DHT22;7938;47.666;9.434;2022-11-15T15:37:45;8.90;99.90
15676;DHT22;7938;47.666;9.434;2022-11-15T15:40:15;8.90;99.90
15676;DHT22;7938;47.666;9.434;2022-11-15T15:42:42;8.90;99.90
15676;DHT22;7938;47.666;9.434;2022-11-15T15:45:10;8.80;99.90
15676;DHT22;7938;47.666;9.434;2022-11-15T15:47:39;8.70;99.90
15676;DHT22;7938;47.666;9.434;2022-11-15T15:50:18;8.60;99.90
15676;DHT22;7938;47.666;9.434;2022-11-15T15:52:46;8.60;99.90
15676;DHT22;7938;47.666;9.434;2022-11-15T15:55:13;8.50;99.90
15676;DHT22;7938;47.666;9.434;2022-11-15T15:57:40;8.40;99.90
15676;DHT22;7938;47.666;9.434;2022-11-15T16:00:09;8.30;99.90
15676;DHT22;7938;47.666;9.434;2022-11-15T16:02:37;8.30;99.90
15676;DHT22;7938;47.666;9.434;2022-11-15T16:05:05;8.20;99.90
15676;DHT22;7938;47.666;9.434;2022-11-15T16:07:32;8.20;99.90
15676;DHT22;7938;47.666;9.434;2022-11-15T16:09:59;8.20;99.90
15676;DHT22;7938;47.666;9.434;2022-11-15T16:12:26;8.30;99.90
15676;DHT22;7938;47.666;9.434;2022-11-15T16:14:53;8.20;99.90
15676;DHT22;7938;47.666;9.434;2022-11-15T16:17:21;8.20;99.90
15676;DHT22;7938;47.666;9.434;2022-11-15T16:19:50;8.20;99.90
15676;DHT22;7938;47.666;9.434;2022-11-15T16:22:17;8.30;99.90
15676;DHT22;7938;47.666;9.434;2022-11-15T16:24:44;8.30;99.90
15676;DHT22;7938;47.666;9.434;2022-11-15T16:27:13;8.30;99.90
15676;DHT22;7938;47.666;9.434;2022-11-15T16:29:40;8.30;99.90
15676;DHT22;7938;47.666;9.434;2022-11-15T16:32:07;8.20;99.90
15676;DHT22;7938;47.666;9.434;2022-11-15T16:34:34;8.30;99.90
15676;DHT22;7938;47.666;9.434;2022-11-15T16:37:03;8.30;99.90
15676;DHT22;7938;47.666;9.434;2022-11-15T16:39:30;8.30;99.90
15676;DHT22;7938;47.666;9.434;2022-11-15T16:41:58;8.30;99.90
15676;DHT22;7938;47.666;9.434;2022-11-15T16:44:25;8.30;99.90
15676;DHT22;7938;47.666;9.434;2022-11-15T16:46:52;8.40;99.90
15676;DHT22;7938;47.666;9.434;2022-11-15T16:49:20;8.50;99.90
15676;DHT22;7938;47.666;9.434;2022-11-15T16:51:49;8.70;99.90
15676;DHT22;7938;47.666;9.434;2022-11-15T16:54:17;8.60;99.90
15676;DHT22;7938;47.666;9.434;2022-11-15T16:56:44;8.70;99.90
15676;DHT22;7938;47.666;9.434;2022-11-15T16:59:15;8.80;99.90
15676;DHT22;7938;47.666;9.434;2022-11-15T17:01:44;8.70;99.90
15676;DHT22;7938;47.666;9.434;2022-11-15T17:04:17;8.80;99.90
15676;DHT22;7938;47.666;9.434;2022-11-15T17:06:45;8.70;99.90
15676;DHT22;7938;47.666;9.434;2022-11-15T17:09:13;8.70;99.90
15676;DHT22;7938;47.666;9.434;2022-11-15T17:11:42;8.70;99.90
15676;DHT22;7938;47.666;9.434;2022-11-15T17:14:10;8.70;99.90
15676;DHT22;7938;47.666;9.434;2022-11-15T17:16:37;8.60;99.90
15676;DHT22;7938;47.666;9.434;2022-11-15T17:19:11;8.60;99.90
15676;DHT22;7938;47.666;9.434;2022-11-15T17:21:39;8.60;99.90
15676;DHT22;7938;47.666;9.434;2022-11-15T17:24:07;8.60;99.90
15676;DHT22;7938;47.666;9.434;2022-11-15T17:26:34;8.60;99.90
15676;DHT22;7938;47.666;9.434;2022-11-15T17:29:02;8.60;99.90
15676;DHT22;7938;47.666;9.434;2022-11-15T17:34:00;8.60;99.90
15676;DHT22;7938;47.666;9.434;2022-11-15T17:36:27;8.60;99.90
15676;DHT22;7938;47.666;9.434;2022-11-15T17:38:54;8.60;99.90
15676;DHT22;7938;47.666;9.434;2022-11-15T17:41:22;8.70;99.90
15676;DHT22;7938;47.666;9.434;2022-11-15T17:43:48;8.70;99.90
15676;DHT22;7938;47.666;9.434;2022-11-15T17:46:19;8.70;99.90
15676;DHT22;7938;47.666;9.434;2022-11-15T17:48:46;8.60;99.90
15676;DHT22;7938;47.666;9.434;2022-11-15T17:51:15;8.70;99.90
15676;DHT22;7938;47.666;9.434;2022-11-15T17:53:43;8.70;99.90
15676;DHT22;7938;47.666;9.434;2022-11-15T17:56:12;8.70;99.90
15676;DHT22;7938;47.666;9.434;2022-11-15T17:58:39;8.70;99.90
15676;DHT22;7938;47.666;9.434;2022-11-15T18:01:07;8.70;99.90
15676;DHT22;7938;47.666;9.434;2022-11-15T18:03:36;8.70;99.90
15676;DHT22;7938;47.666;9.434;2022-11-15T18:06:04;8.70;99.90
15676;DHT22;7938;47.666;9.434;2022-11-15T18:08:32;8.70;99.90
15676;DHT22;7938;47.666;9.434;2022-11-15T18:11:05;8.70;99.90
15676;DHT22;7938;47.666;9.434;2022-11-15T18:13:33;8.70;99.90
15676;DHT22;7938;47.666;9.434;2022-11-15T18:16:00;8.70;99.90
15676;DHT22;7938;47.666;9.434;2022-11-15T18:18:30;8.80;99.90
15676;DHT22;7938;47.666;9.434;2022-11-15T18:21:03;8.70;99.90
15676;DHT22;7938;47.666;9.434;2022-11-15T18:23:30;8.70;99.90
15676;DHT22;7938;47.666;9.434;2022-11-15T18:25:57;8.80;99.90
15676;DHT22;7938;47.666;9.434;2022-11-15T18:28:29;8.80;99.90
15676;DHT22;7938;47.666;9.434;2022-11-15T18:30:57;8.90;99.90
15676;DHT22;7938;47.666;9.434;2022-11-15T18:33:25;8.90;99.90
15676;DHT22;7938;47.666;9.434;2022-11-15T18:35:59;9.00;99.90
15676;DHT22;7938;47.666;9.434;2022-11-15T18:38:27;9.00;99.90
15676;DHT22;7938;47.666;9.434;2022-11-15T18:40:56;9.00;99.90
15676;DHT22;7938;47.666;9.434;2022-11-15T18:43:24;9.00;99.90
15676;DHT22;7938;47.666;9.434;2022-11-15T18:45:51;9.10;99.90
15676;DHT22;7938;47.666;9.434;2022-11-15T18:48:18;9.00;99.90
15676;DHT22;7938;47.666;9.434;2022-11-15T18:50:45;9.10;99.90
15676;DHT22;7938;47.666;9.434;2022-11-15T18:53:12;9.10;99.90
15676;DHT22;7938;47.666;9.434;2022-11-15T18:55:40;9.20;99.90
15676;DHT22;7938;47.666;9.434;2022-11-15T18:58:07;9.30;99.90
15676;DHT22;7938;47.666;9.434;2022-11-15T19:00:34;9.40;99.90
15676;DHT22;7938;47.666;9.434;2022-11-15T19:03:01;9.40;99.90
15676;DHT22;7938;47.666;9.434;2022-11-15T19:05:27;9.40;99.90
15676;DHT22;7938;47.666;9.434;2022-11-15T19:07:54;9.30;99.90
15676;DHT22;7938;47.666;9.434;2022-11-15T19:10:21;9.30;99.90
15676;DHT22;7938;47.666;9.434;2022-11-15T19:12:50;9.30;99.90
15676;DHT22;7938;47.666;9.434;2022-11-15T19:15:16;9.30;99.90
15676;DHT22;7938;47.666;9.434;2022-11-15T19:17:43;9.30;99.90
15676;DHT22;7938;47.666;9.434;2022-11-15T19:20:10;9.40;99.90
15676;DHT22;7938;47.666;9.434;2022-11-15T19:22:37;9.30;99.90
15676;DHT22;7938;47.666;9.434;2022-11-15T19:25:04;9.30;99.90
15676;DHT22;7938;47.666;9.434;2022-11-15T19:27:33;9.30;99.90
15676;DHT22;7938;47.666;9.434;2022-11-15T19:30:01;9.30;99.90
15676;DHT22;7938;47.666;9.434;2022-11-15T19:32:28;9.30;99.90
15676;DHT22;7938;47.666;9.434;2022-11-15T19:34:55;9.20;99.90
15676;DHT22;7938;47.666;9.434;2022-11-15T19:37:22;9.20;99.90
15676;DHT22;7938;47.666;9.434;2022-11-15T19:39:49;9.20;99.90
15676;DHT22;7938;47.666;9.434;2022-11-15T19:42:16;9.20;99.90
15676;DHT22;7938;47.666;9.434;2022-11-15T19:44:43;9.20;99.90
15676;DHT22;7938;47.666;9.434;2022-11-15T19:47:11;9.20;99.90
15676;DHT22;7938;47.666;9.434;2022-11-15T19:49:38;9.10;99.90
15676;DHT22;7938;47.666;9.434;2022-11-15T19:52:05;9.10;99.90
15676;DHT22;7938;47.666;9.434;2022-11-15T19:54:32;9.10;99.90
15676;DHT22;7938;47.666;9.434;2022-11-15T19:56:59;9.10;99.90
15676;DHT22;7938;47.666;9.434;2022-11-15T19:59:25;9.10;99.90
15676;DHT22;7938;47.666;9.434;2022-11-15T20:01:52;9.10;99.90
15676;DHT22;7938;47.666;9.434;2022-11-15T20:04:21;9.10;99.90
15676;DHT22;7938;47.666;9.434;2022-11-15T20:06:47;9.10;99.90
15676;DHT22;7938;47.666;9.434;2022-11-15T20:09:15;9.10;99.90
15676;DHT22;7938;47.666;9.434;2022-11-15T20:11:42;9.10;99.90
15676;DHT22;7938;47.666;9.434;2022-11-15T20:14:09;9.20;99.90
15676;DHT22;7938;47.666;9.434;2022-11-15T20:16:37;9.10;99.90
15676;DHT22;7938;47.666;9.434;2022-11-15T20:19:04;9.20;99.90
15676;DHT22;7938;47.666;9.434;2022-11-15T20:21:33;9.00;99.90
15676;DHT22;7938;47.666;9.434;2022-11-15T20:24:00;9.00;99.90
15676;DHT22;7938;47.666;9.434;2022-11-15T20:26:27;8.90;99.90
15676;DHT22;7938;47.666;9.434;2022-11-15T20:28:56;8.90;99.90
15676;DHT22;7938;47.666;9.434;2022-11-15T20:31:26;8.80;99.90
15676;DHT22;7938;47.666;9.434;2022-11-15T20:33:53;8.80;99.90
15676;DHT22;7938;47.666;9.434;2022-11-15T20:36:20;8.80;99.90
15676;DHT22;7938;47.666;9.434;2022-11-15T20:38:49;8.80;99.90
15676;DHT22;7938;47.666;9.434;2022-11-15T20:41:16;8.90;99.90
15676;DHT22;7938;47.666;9.434;2022-11-15T20:43:43;8.90;99.90
15676;DHT22;7938;47.666;9.434;2022-11-15T20:46:10;8.90;99.90
15676;DHT22;7938;47.666;9.434;2022-11-15T20:48:37;9.00;99.90
15676;DHT22;7938;47.666;9.434;2022-11-15T20:51:06;9.00;99.90
15676;DHT22;7938;47.666;9.434;2022-11-15T20:53:33;9.00;99.90
15676;DHT22;7938;47.666;9.434;2022-11-15T20:56:08;9.00;99.90
15676;DHT22;7938;47.666;9.434;2022-11-15T20:58:36;9.00;99.90
15676;DHT22;7938;47.666;9.434;2022-11-15T21:01:03;9.00;99.90
15676;DHT22;7938;47.666;9.434;2022-11-15T21:03:31;9.10;99.90
15676;DHT22;7938;47.666;9.434;2022-11-15T21:05:58;9.10;99.90
15676;DHT22;7938;47.666;9.434;2022-11-15T21:08:25;9.20;99.90
15676;DHT22;7938;47.666;9.434;2022-11-15T21:10:53;9.20;99.90
15676;DHT22;7938;47.666;9.434;2022-11-15T21:13:38;9.20;99.90
15676;DHT22;7938;47.666;9.434;2022-11-15T21:16:06;9.20;99.90
15676;DHT22;7938;47.666;9.434;2022-11-15T21:18:33;8.90;99.90
15676;DHT22;7938;47.666;9.434;2022-11-15T21:21:04;9.30;99.90
15676;DHT22;7938;47.666;9.434;2022-11-15T21:23:31;9.20;99.90
15676;DHT22;7938;47.666;9.434;2022-11-15T21:25:58;9.20;99.90
15676;DHT22;7938;47.666;9.434;2022-11-15T21:28:25;9.20;99.90
15676;DHT22;7938;47.666;9.434;2022-11-15T21:30:54;9.20;99.90
15676;DHT22;7938;47.666;9.434;2022-11-15T21:33:21;9.20;99.90
15676;DHT22;7938;47.666;9.434;2022-11-15T21:35:52;9.20;99.90
15676;DHT22;7938;47.666;9.434;2022-11-15T21:38:19;9.20;99.90